sensor_id;sensor_type;location;lat;lon;timestamp;temperature;humidity
65034;DHT22;51601;51.356;12.458;2023-04-03T00:02:58;2.30;99.90
65034;DHT22;51601;51.356;12.458;2023-04-03T00:07:16;2.30;99.90
65034;DHT22;51601;51.356;12.458;2023-04-03T00:11:34;2.20;99.90
65034;DHT22;51601;51.356;12.458;2023-04-03T00:15:56;2.20;99.90
65034;DHT22;51601;51.356;12.458;2023-04-03T00:20:16;2.20;99.90
65034;DHT22;51601;51.356;12.458;2023-04-03T00:24:34;2.20;99.90
65034;DHT22;51601;51.356;12.458;2023-04-03T00:28:52;2.10;99.90
65034;DHT22;51601;51.356;12.458;2023-04-03T00:33:12;2.10;99.90
65034;DHT22;51601;51.356;12.458;2023-04-03T00:37:31;2.10;99.90
65034;DHT22;51601;51.356;12.458;2023-04-03T00:41:49;2.00;99.90
65034;DHT22;51601;51.356;12.458;2023-04-03T00:46:08;1.90;99.90
65034;DHT22;51601;51.356;12.458;2023-04-03T00:50:28;1.80;99.90
65034;DHT22;51601;51.356;12.458;2023-04-03T00:54:49;1.70;99.90
65034;DHT22;51601;51.356;12.458;2023-04-03T00:59:11;1.60;99.90
65034;DHT22;51601;51.356;12.458;2023-04-03T01:03:32;1.60;99.90
65034;DHT22;51601;51.356;12.458;2023-04-03T01:07:55;1.50;99.90
65034;DHT22;51601;51.356;12.458;2023-04-03T01:12:16;1.40;99.90
65034;DHT22;51601;51.356;12.458;2023-04-03T01:16:35;1.30;99.90
65034;DHT22;51601;51.356;12.458;2023-04-03T01:21:30;1.30;99.90
65034;DHT22;51601;51.356;12.458;2023-04-03T01:26:02;1.20;99.90
65034;DHT22;51601;51.356;12.458;2023-04-03T01:30:28;1.10;99.90
65034;DHT22;51601;51.356;12.458;2023-04-03T01:34:50;1.00;99.90
65034;DHT22;51601;51.356;12.458;2023-04-03T01:39:10;0.90;99.90
65034;DHT22;51601;51.356;12.458;2023-04-03T01:43:28;0.80;99.90
65034;DHT22;51601;51.356;12.458;2023-04-03T01:47:46;0.70;99.90
65034;DHT22;51601;51.356;12.458;2023-04-03T01:52:06;0.60;99.90
65034;DHT22;51601;51.356;12.458;2023-04-03T01:56:26;0.60;99.90
65034;DHT22;51601;51.356;12.458;2023-04-03T02:00:47;0.50;99.90
65034;DHT22;51601;51.356;12.458;2023-04-03T02:05:08;0.40;99.90
65034;DHT22;51601;51.356;12.458;2023-04-03T02:09:30;0.40;99.90
65034;DHT22;51601;51.356;12.458;2023-04-03T02:13:51;0.40;99.90
65034;DHT22;51601;51.356;12.458;2023-04-03T02:18:11;0.40;99.90
65034;DHT22;51601;51.356;12.458;2023-04-03T02:22:29;0.40;99.90
65034;DHT22;51601;51.356;12.458;2023-04-03T02:26:49;0.40;99.90
65034;DHT22;51601;51.356;12.458;2023-04-03T02:31:09;0.30;99.90
65034;DHT22;51601;51.356;12.458;2023-04-03T02:35:30;0.30;99.90
65034;DHT22;51601;51.356;12.458;2023-04-03T02:39:51;0.30;99.90
65034;DHT22;51601;51.356;12.458;2023-04-03T02:44:14;0.30;99.90
65034;DHT22;51601;51.356;12.458;2023-04-03T02:48:37;0.20;99.90
65034;DHT22;51601;51.356;12.458;2023-04-03T02:52:58;0.10;99.90
65034;DHT22;51601;51.356;12.458;2023-04-03T02:57:18;0.00;99.90
65034;DHT22;51601;51.356;12.458;2023-04-03T03:01:41;0.00;99.90
65034;DHT22;51601;51.356;12.458;2023-04-03T03:06:02;-0.20;99.90
65034;DHT22;51601;51.356;12.458;2023-04-03T03:10:22;-0.30;99.90
65034;DHT22;51601;51.356;12.458;2023-04-03T03:14:39;-0.40;99.90
65034;DHT22;51601;51.356;12.458;2023-04-03T03:19:02;-0.40;99.90
65034;DHT22;51601;51.356;12.458;2023-04-03T03:23:23;-0.50;99.90
65034;DHT22;51601;51.356;12.458;2023-04-03T03:27:43;-0.60;99.90
65034;DHT22;51601;51.356;12.458;2023-04-03T03:32:04;-0.60;99.90
65034;DHT22;51601;51.356;12.458;2023-04-03T03:36:27;-0.70;99.90
65034;DHT22;51601;51.356;12.458;2023-04-03T03:40:47;-0.70;99.90
65034;DHT22;51601;51.356;12.458;2023-04-03T03:45:11;-0.80;99.90
65034;DHT22;51601;51.356;12.458;2023-04-03T03:49:32;-0.80;99.90
65034;DHT22;51601;51.356;12.458;2023-04-03T03:53:54;-0.90;99.90
65034;DHT22;51601;51.356;12.458;2023-04-03T03:58:14;-0.90;99.90
65034;DHT22;51601;51.356;12.458;2023-04-03T04:02:32;-1.00;99.90
65034;DHT22;51601;51.356;12.458;2023-04-03T04:06:50;-1.00;99.90
65034;DHT22;51601;51.356;12.458;2023-04-03T04:11:09;-1.10;99.90
65034;DHT22;51601;51.356;12.458;2023-04-03T04:15:32;-1.10;99.90
65034;DHT22;51601;51.356;12.458;2023-04-03T04:19:53;-1.20;99.90
65034;DHT22;51601;51.356;12.458;2023-04-03T04:24:15;-1.20;99.90
65034;DHT22;51601;51.356;12.458;2023-04-03T04:28:37;-1.20;99.90
65034;DHT22;51601;51.356;12.458;2023-04-03T04:32:57;-1.30;99.90
65034;DHT22;51601;51.356;12.458;2023-04-03T04:37:18;-1.30;99.90
65034;DHT22;51601;51.356;12.458;2023-04-03T04:41:36;-1.40;99.90
65034;DHT22;51601;51.356;12.458;2023-04-03T04:46:03;-1.40;99.90
65034;DHT22;51601;51.356;12.458;2023-04-03T04:50:28;-1.40;99.90
65034;DHT22;51601;51.356;12.458;2023-04-03T04:54:45;-1.40;99.90
65034;DHT22;51601;51.356;12.458;2023-04-03T04:59:04;-1.30;99.90
65034;DHT22;51601;51.356;12.458;2023-04-03T05:03:23;-0.90;99.90
65034;DHT22;51601;51.356;12.458;2023-04-03T05:07:43;-0.40;99.90
65034;DHT22;51601;51.356;12.458;2023-04-03T05:12:04;0.30;99.90
65034;DHT22;51601;51.356;12.458;2023-04-03T05:16:28;1.00;99.90
65034;DHT22;51601;51.356;12.458;2023-04-03T05:20:50;1.70;99.90
65034;DHT22;51601;51.356;12.458;2023-04-03T05:25:10;2.40;99.90
65034;DHT22;51601;51.356;12.458;2023-04-03T05:29:31;3.10;99.90
65034;DHT22;51601;51.356;12.458;2023-04-03T05:33:53;3.80;99.90
65034;DHT22;51601;51.356;12.458;2023-04-03T05:38:12;4.50;99.90
65034;DHT22;51601;51.356;12.458;2023-04-03T05:42:32;5.20;97.60
65034;DHT22;51601;51.356;12.458;2023-04-03T05:46:50;5.80;93.10
65034;DHT22;51601;51.356;12.458;2023-04-03T05:51:14;6.40;88.10
65034;DHT22;51601;51.356;12.458;2023-04-03T05:55:36;6.90;81.20
65034;DHT22;51601;51.356;12.458;2023-04-03T05:59:56;7.40;76.00
65034;DHT22;51601;51.356;12.458;2023-04-03T06:04:14;7.80;73.40
65034;DHT22;51601;51.356;12.458;2023-04-03T06:08:32;8.30;72.50
65034;DHT22;51601;51.356;12.458;2023-04-03T06:12:52;8.70;68.80
65034;DHT22;51601;51.356;12.458;2023-04-03T06:17:11;9.10;67.40
65034;DHT22;51601;51.356;12.458;2023-04-03T06:21:30;9.50;64.80
65034;DHT22;51601;51.356;12.458;2023-04-03T06:25:48;9.80;65.50
65034;DHT22;51601;51.356;12.458;2023-04-03T06:30:08;10.30;62.90
65034;DHT22;51601;51.356;12.458;2023-04-03T06:34:27;10.50;59.30
65034;DHT22;51601;51.356;12.458;2023-04-03T06:38:45;10.70;58.20
65034;DHT22;51601;51.356;12.458;2023-04-03T06:43:03;10.80;58.50
65034;DHT22;51601;51.356;12.458;2023-04-03T06:47:22;11.00;56.20
65034;DHT22;51601;51.356;12.458;2023-04-03T06:51:42;11.20;56.30
65034;DHT22;51601;51.356;12.458;2023-04-03T06:56:00;11.20;53.70
65034;DHT22;51601;51.356;12.458;2023-04-03T07:00:19;11.40;55.10
65034;DHT22;51601;51.356;12.458;2023-04-03T07:04:41;11.60;53.80
65034;DHT22;51601;51.356;12.458;2023-04-03T07:09:01;11.80;50.40
65034;DHT22;51601;51.356;12.458;2023-04-03T07:13:18;11.70;50.20
65034;DHT22;51601;51.356;12.458;2023-04-03T07:17:36;11.70;50.10
65034;DHT22;51601;51.356;12.458;2023-04-03T07:21:56;11.90;52.00
65034;DHT22;51601;51.356;12.458;2023-04-03T07:26:16;12.40;50.60
65034;DHT22;51601;51.356;12.458;2023-04-03T07:30:34;12.70;49.00
65034;DHT22;51601;51.356;12.458;2023-04-03T07:34:52;12.90;47.30
65034;DHT22;51601;51.356;12.458;2023-04-03T07:39:14;12.90;46.30
65034;DHT22;51601;51.356;12.458;2023-04-03T07:43:34;12.90;46.20
65034;DHT22;51601;51.356;12.458;2023-04-03T07:47:52;13.00;44.60
65034;DHT22;51601;51.356;12.458;2023-04-03T07:52:10;12.60;44.00
65034;DHT22;51601;51.356;12.458;2023-04-03T07:56:30;12.30;45.90
65034;DHT22;51601;51.356;12.458;2023-04-03T08:00:49;12.50;46.60
65034;DHT22;51601;51.356;12.458;2023-04-03T08:05:08;12.80;47.20
65034;DHT22;51601;51.356;12.458;2023-04-03T08:09:28;13.30;45.10
65034;DHT22;51601;51.356;12.458;2023-04-03T08:13:48;12.60;44.60
65034;DHT22;51601;51.356;12.458;2023-04-03T08:18:08;11.20;45.60
65034;DHT22;51601;51.356;12.458;2023-04-03T08:22:26;10.20;47.50
65034;DHT22;51601;51.356;12.458;2023-04-03T08:26:44;10.40;47.80
65034;DHT22;51601;51.356;12.458;2023-04-03T08:31:04;10.90;47.50
65034;DHT22;51601;51.356;12.458;2023-04-03T08:35:23;11.50;48.50
65034;DHT22;51601;51.356;12.458;2023-04-03T08:39:41;12.50;47.20
65034;DHT22;51601;51.356;12.458;2023-04-03T08:44:12;12.90;43.70
65034;DHT22;51601;51.356;12.458;2023-04-03T08:48:36;12.80;43.30
65034;DHT22;51601;51.356;12.458;2023-04-03T08:52:58;12.20;43.10
65034;DHT22;51601;51.356;12.458;2023-04-03T08:57:25;11.70;44.60
65034;DHT22;51601;51.356;12.458;2023-04-03T09:01:45;12.10;45.50
65034;DHT22;51601;51.356;12.458;2023-04-03T09:06:07;13.00;44.80
65034;DHT22;51601;51.356;12.458;2023-04-03T09:10:30;13.90;43.20
65034;DHT22;51601;51.356;12.458;2023-04-03T09:14:55;14.50;41.80
65034;DHT22;51601;51.356;12.458;2023-04-03T09:19:34;15.00;40.50
65034;DHT22;51601;51.356;12.458;2023-04-03T09:23:59;15.20;39.20
65034;DHT22;51601;51.356;12.458;2023-04-03T09:28:20;15.30;37.40
65034;DHT22;51601;51.356;12.458;2023-04-03T09:32:41;15.20;39.70
65034;DHT22;51601;51.356;12.458;2023-04-03T09:37:00;14.90;40.60
65034;DHT22;51601;51.356;12.458;2023-04-03T09:41:24;15.00;37.60
65034;DHT22;51601;51.356;12.458;2023-04-03T09:45:45;14.50;36.90
65034;DHT22;51601;51.356;12.458;2023-04-03T09:50:17;13.80;37.50
65034;DHT22;51601;51.356;12.458;2023-04-03T09:54:39;13.40;38.90
65034;DHT22;51601;51.356;12.458;2023-04-03T09:59:13;12.60;39.00
65034;DHT22;51601;51.356;12.458;2023-04-03T10:03:35;12.00;39.10
65034;DHT22;51601;51.356;12.458;2023-04-03T10:08:22;11.80;39.70
65034;DHT22;51601;51.356;12.458;2023-04-03T10:12:40;12.10;40.60
65034;DHT22;51601;51.356;12.458;2023-04-03T10:17:09;12.30;39.20
65034;DHT22;51601;51.356;12.458;2023-04-03T10:21:37;12.30;39.00
65034;DHT22;51601;51.356;12.458;2023-04-03T10:26:05;12.40;39.10
65034;DHT22;51601;51.356;12.458;2023-04-03T10:30:34;12.50;38.70
65034;DHT22;51601;51.356;12.458;2023-04-03T10:35:02;12.60;40.10
65034;DHT22;51601;51.356;12.458;2023-04-03T10:39:33;13.00;39.40
65034;DHT22;51601;51.356;12.458;2023-04-03T10:44:04;13.30;39.30
65034;DHT22;51601;51.356;12.458;2023-04-03T10:48:40;13.70;40.20
65034;DHT22;51601;51.356;12.458;2023-04-03T10:53:06;13.50;40.80
65034;DHT22;51601;51.356;12.458;2023-04-03T10:57:25;12.70;40.60
65034;DHT22;51601;51.356;12.458;2023-04-03T11:01:49;11.70;40.90
65034;DHT22;51601;51.356;12.458;2023-04-03T11:06:09;10.70;41.90
65034;DHT22;51601;51.356;12.458;2023-04-03T11:10:36;10.00;43.30
65034;DHT22;51601;51.356;12.458;2023-04-03T11:14:56;9.50;44.10
65034;DHT22;51601;51.356;12.458;2023-04-03T11:19:18;9.10;44.80
65034;DHT22;51601;51.356;12.458;2023-04-03T11:23:40;9.00;46.60
65034;DHT22;51601;51.356;12.458;2023-04-03T11:28:12;8.80;47.00
65034;DHT22;51601;51.356;12.458;2023-04-03T11:33:01;8.80;47.20
65034;DHT22;51601;51.356;12.458;2023-04-03T11:37:29;9.20;47.40
65034;DHT22;51601;51.356;12.458;2023-04-03T11:41:49;9.80;46.60
65034;DHT22;51601;51.356;12.458;2023-04-03T11:46:14;9.70;46.70
65034;DHT22;51601;51.356;12.458;2023-04-03T11:50:43;9.60;46.60
65034;DHT22;51601;51.356;12.458;2023-04-03T11:55:01;9.40;46.40
65034;DHT22;51601;51.356;12.458;2023-04-03T11:59:23;9.40;45.80
65034;DHT22;51601;51.356;12.458;2023-04-03T12:04:10;9.40;46.30
65034;DHT22;51601;51.356;12.458;2023-04-03T12:08:45;9.80;45.40
65034;DHT22;51601;51.356;12.458;2023-04-03T12:13:15;9.50;44.00
65034;DHT22;51601;51.356;12.458;2023-04-03T12:17:33;9.50;44.90
65034;DHT22;51601;51.356;12.458;2023-04-03T12:22:15;9.70;44.30
65034;DHT22;51601;51.356;12.458;2023-04-03T12:26:40;9.50;44.60
65034;DHT22;51601;51.356;12.458;2023-04-03T12:31:05;9.20;46.00
65034;DHT22;51601;51.356;12.458;2023-04-03T12:35:31;8.90;46.70
65034;DHT22;51601;51.356;12.458;2023-04-03T12:40:00;8.70;46.10
65034;DHT22;51601;51.356;12.458;2023-04-03T12:44:35;8.40;46.50
65034;DHT22;51601;51.356;12.458;2023-04-03T12:48:58;8.20;46.70
65034;DHT22;51601;51.356;12.458;2023-04-03T12:53:19;8.10;48.20
65034;DHT22;51601;51.356;12.458;2023-04-03T12:57:40;8.10;49.00
65034;DHT22;51601;51.356;12.458;2023-04-03T13:02:01;8.00;49.40
65034;DHT22;51601;51.356;12.458;2023-04-03T13:06:27;8.00;49.70
65034;DHT22;51601;51.356;12.458;2023-04-03T13:10:52;8.00;49.60
65034;DHT22;51601;51.356;12.458;2023-04-03T13:15:16;8.00;49.40
65034;DHT22;51601;51.356;12.458;2023-04-03T13:19:34;7.90;48.20
65034;DHT22;51601;51.356;12.458;2023-04-03T13:23:57;7.70;49.30
65034;DHT22;51601;51.356;12.458;2023-04-03T13:28:36;7.60;50.30
65034;DHT22;51601;51.356;12.458;2023-04-03T13:33:00;7.50;50.20
65034;DHT22;51601;51.356;12.458;2023-04-03T13:37:24;7.40;50.30
65034;DHT22;51601;51.356;12.458;2023-04-03T13:41:47;7.40;50.20
65034;DHT22;51601;51.356;12.458;2023-04-03T13:46:24;7.30;49.90
65034;DHT22;51601;51.356;12.458;2023-04-03T13:50:57;7.10;49.80
65034;DHT22;51601;51.356;12.458;2023-04-03T13:55:21;7.00;50.10
65034;DHT22;51601;51.356;12.458;2023-04-03T13:59:43;6.90;49.80
65034;DHT22;51601;51.356;12.458;2023-04-03T14:04:12;6.80;49.70
65034;DHT22;51601;51.356;12.458;2023-04-03T14:08:38;6.70;50.30
65034;DHT22;51601;51.356;12.458;2023-04-03T14:13:01;6.70;50.80
65034;DHT22;51601;51.356;12.458;2023-04-03T14:17:24;6.60;51.40
65034;DHT22;51601;51.356;12.458;2023-04-03T14:21:43;6.60;51.90
65034;DHT22;51601;51.356;12.458;2023-04-03T14:26:02;6.60;52.00
65034;DHT22;51601;51.356;12.458;2023-04-03T14:30:24;6.60;51.90
65034;DHT22;51601;51.356;12.458;2023-04-03T14:34:47;6.50;51.80
65034;DHT22;51601;51.356;12.458;2023-04-03T14:39:10;6.50;52.40
65034;DHT22;51601;51.356;12.458;2023-04-03T14:43:30;6.40;52.60
65034;DHT22;51601;51.356;12.458;2023-04-03T14:47:52;6.30;52.40
65034;DHT22;51601;51.356;12.458;2023-04-03T14:52:19;6.20;52.20
65034;DHT22;51601;51.356;12.458;2023-04-03T14:56:38;6.10;52.30
65034;DHT22;51601;51.356;12.458;2023-04-03T15:00:58;6.00;52.10
65034;DHT22;51601;51.356;12.458;2023-04-03T15:05:17;5.90;52.40
65034;DHT22;51601;51.356;12.458;2023-04-03T15:09:39;5.80;52.60
65034;DHT22;51601;51.356;12.458;2023-04-03T15:14:00;5.70;52.30
65034;DHT22;51601;51.356;12.458;2023-04-03T15:18:24;5.60;52.20
65034;DHT22;51601;51.356;12.458;2023-04-03T15:22:48;5.50;52.40
65034;DHT22;51601;51.356;12.458;2023-04-03T15:27:06;5.50;52.70
65034;DHT22;51601;51.356;12.458;2023-04-03T15:31:28;5.50;52.80
65034;DHT22;51601;51.356;12.458;2023-04-03T15:35:50;5.40;52.90
65034;DHT22;51601;51.356;12.458;2023-04-03T15:40:25;5.40;53.10
65034;DHT22;51601;51.356;12.458;2023-04-03T15:44:46;5.40;53.50
65034;DHT22;51601;51.356;12.458;2023-04-03T15:49:08;5.30;53.10
65034;DHT22;51601;51.356;12.458;2023-04-03T15:53:29;5.20;52.80
65034;DHT22;51601;51.356;12.458;2023-04-03T15:57:49;5.10;52.70
65034;DHT22;51601;51.356;12.458;2023-04-03T16:02:13;5.00;53.20
65034;DHT22;51601;51.356;12.458;2023-04-03T16:06:35;5.00;53.00
65034;DHT22;51601;51.356;12.458;2023-04-03T16:10:57;4.90;53.10
65034;DHT22;51601;51.356;12.458;2023-04-03T16:15:17;4.90;53.30
65034;DHT22;51601;51.356;12.458;2023-04-03T16:19:38;4.80;53.50
65034;DHT22;51601;51.356;12.458;2023-04-03T16:23:57;4.80;54.00
65034;DHT22;51601;51.356;12.458;2023-04-03T16:28:23;4.70;54.40
65034;DHT22;51601;51.356;12.458;2023-04-03T16:32:46;4.70;54.40
65034;DHT22;51601;51.356;12.458;2023-04-03T16:37:09;4.70;54.20
65034;DHT22;51601;51.356;12.458;2023-04-03T16:41:29;4.60;54.30
65034;DHT22;51601;51.356;12.458;2023-04-03T16:45:52;4.50;54.60
65034;DHT22;51601;51.356;12.458;2023-04-03T16:50:13;4.50;55.00
65034;DHT22;51601;51.356;12.458;2023-04-03T16:54:37;4.40;55.40
65034;DHT22;51601;51.356;12.458;2023-04-03T16:59:01;4.40;55.50
65034;DHT22;51601;51.356;12.458;2023-04-03T17:03:27;4.40;56.10
65034;DHT22;51601;51.356;12.458;2023-04-03T17:07:48;4.30;56.50
65034;DHT22;51601;51.356;12.458;2023-04-03T17:12:07;4.30;57.00
65034;DHT22;51601;51.356;12.458;2023-04-03T17:16:29;4.20;57.30
65034;DHT22;51601;51.356;12.458;2023-04-03T17:20:54;4.20;57.70
65034;DHT22;51601;51.356;12.458;2023-04-03T17:25:13;4.20;58.00
65034;DHT22;51601;51.356;12.458;2023-04-03T17:29:34;4.20;58.00
65034;DHT22;51601;51.356;12.458;2023-04-03T17:33:52;4.20;58.20
65034;DHT22;51601;51.356;12.458;2023-04-03T17:38:13;4.10;58.50
65034;DHT22;51601;51.356;12.458;2023-04-03T17:42:34;4.10;58.80
65034;DHT22;51601;51.356;12.458;2023-04-03T17:46:55;4.10;59.10
65034;DHT22;51601;51.356;12.458;2023-04-03T17:51:16;4.10;59.30
65034;DHT22;51601;51.356;12.458;2023-04-03T17:55:38;4.10;59.40
65034;DHT22;51601;51.356;12.458;2023-04-03T17:59:56;4.10;59.30
65034;DHT22;51601;51.356;12.458;2023-04-03T18:04:14;4.10;59.10
65034;DHT22;51601;51.356;12.458;2023-04-03T18:08:34;4.10;59.20
65034;DHT22;51601;51.356;12.458;2023-04-03T18:12:55;4.10;59.10
65034;DHT22;51601;51.356;12.458;2023-04-03T18:17:14;4.10;58.90
65034;DHT22;51601;51.356;12.458;2023-04-03T18:21:35;4.00;58.90
65034;DHT22;51601;51.356;12.458;2023-04-03T18:25:57;4.00;59.00
65034;DHT22;51601;51.356;12.458;2023-04-03T18:30:19;3.90;59.00
65034;DHT22;51601;51.356;12.458;2023-04-03T18:34:39;3.90;58.50
65034;DHT22;51601;51.356;12.458;2023-04-03T18:39:01;3.80;58.40
65034;DHT22;51601;51.356;12.458;2023-04-03T18:43:22;3.80;57.80
65034;DHT22;51601;51.356;12.458;2023-04-03T18:47:47;3.80;57.40
65034;DHT22;51601;51.356;12.458;2023-04-03T18:52:07;3.80;58.00
65034;DHT22;51601;51.356;12.458;2023-04-03T18:56:28;3.80;58.60
65034;DHT22;51601;51.356;12.458;2023-04-03T19:00:49;3.80;59.00
65034;DHT22;51601;51.356;12.458;2023-04-03T19:05:11;3.80;59.40
65034;DHT22;51601;51.356;12.458;2023-04-03T19:09:31;3.80;59.60
65034;DHT22;51601;51.356;12.458;2023-04-03T19:13:49;3.80;59.70
65034;DHT22;51601;51.356;12.458;2023-04-03T19:18:29;3.80;60.00
65034;DHT22;51601;51.356;12.458;2023-04-03T19:22:48;3.70;60.10
65034;DHT22;51601;51.356;12.458;2023-04-03T19:27:08;3.70;60.40
65034;DHT22;51601;51.356;12.458;2023-04-03T19:31:26;3.70;60.60
65034;DHT22;51601;51.356;12.458;2023-04-03T19:35:44;3.70;61.00
65034;DHT22;51601;51.356;12.458;2023-04-03T19:40:04;3.70;61.30
65034;DHT22;51601;51.356;12.458;2023-04-03T19:44:23;3.60;61.50
65034;DHT22;51601;51.356;12.458;2023-04-03T19:48:41;3.60;61.80
65034;DHT22;51601;51.356;12.458;2023-04-03T19:52:59;3.70;62.20
65034;DHT22;51601;51.356;12.458;2023-04-03T19:57:18;3.60;62.30
65034;DHT22;51601;51.356;12.458;2023-04-03T20:01:38;3.60;62.60
65034;DHT22;51601;51.356;12.458;2023-04-03T20:05:56;3.60;62.70
65034;DHT22;51601;51.356;12.458;2023-04-03T20:10:14;3.60;63.00
65034;DHT22;51601;51.356;12.458;2023-04-03T20:14:34;3.60;63.10
65034;DHT22;51601;51.356;12.458;2023-04-03T20:18:54;3.60;63.30
65034;DHT22;51601;51.356;12.458;2023-04-03T20:23:12;3.60;63.40
65034;DHT22;51601;51.356;12.458;2023-04-03T20:27:30;3.60;63.50
65034;DHT22;51601;51.356;12.458;2023-04-03T20:31:49;3.60;63.40
65034;DHT22;51601;51.356;12.458;2023-04-03T20:36:09;3.60;63.60
65034;DHT22;51601;51.356;12.458;2023-04-03T20:40:27;3.60;63.80
65034;DHT22;51601;51.356;12.458;2023-04-03T20:44:45;3.50;63.90
65034;DHT22;51601;51.356;12.458;2023-04-03T20:49:04;3.60;64.10
65034;DHT22;51601;51.356;12.458;2023-04-03T20:53:24;3.60;64.30
65034;DHT22;51601;51.356;12.458;2023-04-03T20:57:42;3.50;64.40
65034;DHT22;51601;51.356;12.458;2023-04-03T21:02:11;3.50;64.60
65034;DHT22;51601;51.356;12.458;2023-04-03T21:20:43;3.50;65.50
65034;DHT22;51601;51.356;12.458;2023-04-03T21:25:03;3.50;65.60
65034;DHT22;51601;51.356;12.458;2023-04-03T21:29:21;3.40;65.70
65034;DHT22;51601;51.356;12.458;2023-04-03T21:33:39;3.40;66.60
65034;DHT22;51601;51.356;12.458;2023-04-03T21:38:01;3.50;66.10
65034;DHT22;51601;51.356;12.458;2023-04-03T21:42:21;3.50;66.30
65034;DHT22;51601;51.356;12.458;2023-04-03T21:46:39;3.40;66.40
65034;DHT22;51601;51.356;12.458;2023-04-03T21:51:04;3.40;66.60
65034;DHT22;51601;51.356;12.458;2023-04-03T21:55:26;3.40;66.70
65034;DHT22;51601;51.356;12.458;2023-04-03T21:59:45;3.40;66.80
65034;DHT22;51601;51.356;12.458;2023-04-03T22:04:03;3.40;67.00
65034;DHT22;51601;51.356;12.458;2023-04-03T22:08:21;3.30;67.20
65034;DHT22;51601;51.356;12.458;2023-04-03T22:12:41;3.40;67.40
65034;DHT22;51601;51.356;12.458;2023-04-03T22:17:01;3.40;67.60
65034;DHT22;51601;51.356;12.458;2023-04-03T22:21:19;3.30;67.70
65034;DHT22;51601;51.356;12.458;2023-04-03T22:25:37;3.30;67.80
65034;DHT22;51601;51.356;12.458;2023-04-03T22:29:56;3.30;68.00
65034;DHT22;51601;51.356;12.458;2023-04-03T22:34:16;3.30;68.20
65034;DHT22;51601;51.356;12.458;2023-04-03T22:38:38;3.40;69.30
65034;DHT22;51601;51.356;12.458;2023-04-03T22:42:58;3.40;68.70
65034;DHT22;51601;51.356;12.458;2023-04-03T22:47:18;3.30;68.80
65034;DHT22;51601;51.356;12.458;2023-04-03T22:51:38;3.30;68.90
65034;DHT22;51601;51.356;12.458;2023-04-03T22:55:56;3.40;69.00
65034;DHT22;51601;51.356;12.458;2023-04-03T23:00:14;3.30;69.10
65034;DHT22;51601;51.356;12.458;2023-04-03T23:04:36;3.30;69.20
65034;DHT22;51601;51.356;12.458;2023-04-03T23:08:56;3.30;69.30
65034;DHT22;51601;51.356;12.458;2023-04-03T23:13:14;3.20;70.20
65034;DHT22;51601;51.356;12.458;2023-04-03T23:17:34;3.20;69.70
65034;DHT22;51601;51.356;12.458;2023-04-03T23:21:55;3.10;69.90
65034;DHT22;51601;51.356;12.458;2023-04-03T23:26:14;3.10;70.20
65034;DHT22;51601;51.356;12.458;2023-04-03T23:30:32;3.10;70.50
65034;DHT22;51601;51.356;12.458;2023-04-03T23:34:50;3.00;70.80
65034;DHT22;51601;51.356;12.458;2023-04-03T23:39:10;2.90;71.00
65034;DHT22;51601;51.356;12.458;2023-04-03T23:43:29;2.90;71.30
65034;DHT22;51601;51.356;12.458;2023-04-03T23:47:48;2.90;71.70
65034;DHT22;51601;51.356;12.458;2023-04-03T23:52:06;2.80;71.90
65034;DHT22;51601;51.356;12.458;2023-04-03T23:56:25;2.80;72.30
